Time;durP1;ratioP1;P1;durP2;ratioP2;P2;SDS_P1;SDS_P2;PMS_P1;PMS_P2;Temp;Humidity;BMP_temperature;BMP_pressure;BME280_temperature;BME280_humidity;BME280_pressure;Samples;Min_cycle;Max_cycle;Signal;HPM_P1;HPM_P2
2023/01/25 00:01:03;;;;;;;;;;;;;;;;;;7368895;19;842;-76
2023/01/25 00:03:31;;;;;;;;;;;;;;;;;;7367300;19;807;-75
2023/01/25 00:05:59;;;;;;;;;;;;;;;;;;7365141;19;1862;-76
2023/01/25 00:08:27;;;;;;;;;;;;;;;;;;7368014;19;875;-75
2023/01/25 00:10:56;;;;;;;;;;;;;;;;;;7367195;19;859;-76
2023/01/25 00:13:24;;;;;;;;;;;;;;;;;;7369077;19;846;-75
2023/01/25 00:15:52;;;;;;;;;;;;;;;;;;7366466;19;1353;-76
2023/01/25 00:18:20;;;;;;;;;;;;;;;;;;7371961;19;1936;-76
2023/01/25 00:20:48;;;;;;;;;;;;;;;;;;7367601;19;772;-76
2023/01/25 00:23:16;;;;;;;;;;;;;;;;;;7369488;19;810;-76
2023/01/25 00:25:44;;;;;;;;;;;;;;;;;;7367378;19;1898;-74
2023/01/25 00:28:13;;;;;;;;;;;;;;;;;;7369963;19;794;-76
2023/01/25 00:30:43;;;;;;;;;;;;;;;;;;7367762;19;900;-75
2023/01/25 00:33:14;;;;;;;;;;;;;;;;;;7368718;19;755;-75
2023/01/25 00:35:43;;;;;;;;;;;;;;;;;;7368778;19;1364;-75
2023/01/25 00:38:11;;;;;;;;;;;;;;;;;;7370538;19;776;-76
2023/01/25 00:40:39;;;;;;;;;;;;;;;;;;7370327;19;645;-76
2023/01/25 00:43:07;;;;;;;;;;;;;;;;;;7382233;19;833;-75
2023/01/25 00:45:35;;;;;;;;;;;;;;;;;;7393636;19;1822;-75
2023/01/25 00:48:03;;;;;;;;;;;;;;;;;;7391810;19;1558;-75
2023/01/25 00:50:33;;;;;;;;;;;;;;;;;;7385147;19;956;-75
2023/01/25 00:53:02;;;;;;;;;;;;;;;;;;7387091;19;866;-75
2023/01/25 00:55:30;;;;;;;;;;;;;;;;;;7385118;19;1375;-75
2023/01/25 00:57:58;;;;;;;;;;;;;;;;;;7384561;19;1023;-75
2023/01/25 01:00:26;;;;;;;;;;;;;;;;;;7384357;19;875;-75
2023/01/25 01:02:54;;;;;;;;;;;;;;;;;;7384025;19;1022;-75
2023/01/25 01:05:22;;;;;;;;;;;;;;;;;;7381739;19;1822;-75
2023/01/25 01:07:51;;;;;;;;;;;;;;;;;;7384257;19;649;-76
2023/01/25 01:10:20;;;;;;;;;;;;;;;;;;7384326;19;939;-75
2023/01/25 01:12:49;;;;;;;;;;;;;;;;;;7383223;19;811;-76
2023/01/25 01:15:17;;;;;;;;;;;;;;;;;;7381852;19;1337;-76
2023/01/25 01:17:46;;;;;;;;;;;;;;;;;;7383629;19;1540;-76
2023/01/25 01:20:14;;;;;;;;;;;;;;;;;;7380313;19;791;-76
2023/01/25 01:22:42;;;;;;;;;;;;;;;;;;7382444;19;1427;-75
2023/01/25 01:25:12;;;;;;;;;;;;;;;;;;7368395;19;1846;-76
2023/01/25 01:27:40;;;;;;;;;;;;;;;;;;7367863;19;720;-76
2023/01/25 01:30:08;;;;;;;;;;;;;;;;;;7367867;19;867;-76
2023/01/25 01:32:36;;;;;;;;;;;;;;;;;;7366566;19;855;-76
2023/01/25 01:35:04;;;;;;;;;;;;;;;;;;7366695;19;1303;-76
2023/01/25 01:37:33;;;;;;;;;;;;;;;;;;7365974;19;824;-76
2023/01/25 01:40:01;;;;;;;;;;;;;;;;;;7366438;19;827;-76
2023/01/25 01:42:29;;;;;;;;;;;;;;;;;;7369808;19;802;-76
2023/01/25 01:44:57;;;;;;;;;;;;;;;;;;7376198;19;1861;-76
2023/01/25 01:47:26;;;;;;;;;;;;;;;;;;7378984;19;759;-75
2023/01/25 01:49:58;;;;;;;;;;;;;;;;;;7377814;19;566;-75
2023/01/25 01:52:27;;;;;;;;;;;;;;;;;;7373013;19;799;-76
2023/01/25 01:54:55;;;;;;;;;;;;;;;;;;7369863;19;1361;-75
2023/01/25 01:57:23;;;;;;;;;;;;;;;;;;7371110;19;811;-76
2023/01/25 01:59:52;;;;;;;;;;;;;;;;;;7371192;19;835;-76
2023/01/25 02:02:20;;;;;;;;;;;;;;;;;;7375882;19;1477;-76
2023/01/25 02:04:48;;;;;;;;;;;;;;;;;;7371756;19;1332;-76
2023/01/25 02:07:16;;;;;;;;;;;;;;;;;;7368844;19;1846;-76
2023/01/25 02:09:47;;;;;;;;;;;;;;;;;;7369154;19;709;-76
2023/01/25 02:12:15;;;;;;;;;;;;;;;;;;7371983;19;876;-75
2023/01/25 02:14:44;;;;;;;;;;;;;;;;;;7370991;19;1353;-75
2023/01/25 02:17:12;;;;;;;;;;;;;;;;;;7371542;19;790;-75
2023/01/25 02:19:40;;;;;;;;;;;;;;;;;;7369974;19;848;-76
2023/01/25 02:22:09;;;;;;;;;;;;;;;;;;7370920;19;778;-76
2023/01/25 02:24:37;;;;;;;;;;;;;;;;;;7369749;19;1361;-75
2023/01/25 02:27:07;;;;;;;;;;;;;;;;;;7369176;19;1850;-75
2023/01/25 02:29:35;;;;;;;;;;;;;;;;;;7368385;19;784;-75
2023/01/25 02:32:03;;;;;;;;;;;;;;;;;;7371640;19;791;-75
2023/01/25 02:34:31;;;;;;;;;;;;;;;;;;7369088;19;1285;-76
2023/01/25 02:37:00;;;;;;;;;;;;;;;;;;7370029;19;791;-76
2023/01/25 02:39:28;;;;;;;;;;;;;;;;;;7368194;19;1416;-76
2023/01/25 02:41:56;;;;;;;;;;;;;;;;;;7370021;19;839;-75
2023/01/25 02:44:26;;;;;;;;;;;;;;;;;;7368174;19;1389;-75
2023/01/25 02:46:54;;;;;;;;;;;;;;;;;;7368675;19;1838;-76
2023/01/25 02:49:22;;;;;;;;;;;;;;;;;;7368146;19;851;-75
2023/01/25 02:51:50;;;;;;;;;;;;;;;;;;7370933;19;970;-75
2023/01/25 02:54:18;;;;;;;;;;;;;;;;;;7368500;19;1439;-76
2023/01/25 02:56:47;;;;;;;;;;;;;;;;;;7370394;19;818;-76
2023/01/25 02:59:15;;;;;;;;;;;;;;;;;;7368244;19;875;-76
2023/01/25 03:01:47;;;;;;;;;;;;;;;;;;7368497;19;683;-76
2023/01/25 03:04:15;;;;;;;;;;;;;;;;;;7368289;19;1247;-76
2023/01/25 03:06:44;;;;;;;;;;;;;;;;;;7367768;19;1864;-75
2023/01/25 03:09:12;;;;;;;;;;;;;;;;;;7368317;19;838;-75
2023/01/25 03:11:45;;;;;;;;;;;;;;;;;;7368785;19;811;-76
2023/01/25 03:14:13;;;;;;;;;;;;;;;;;;7369154;19;1270;-76
2023/01/25 03:16:41;;;;;;;;;;;;;;;;;;7370659;19;1423;-75
2023/01/25 03:19:10;;;;;;;;;;;;;;;;;;7367566;19;874;-75
2023/01/25 03:21:39;;;;;;;;;;;;;;;;;;7368847;19;856;-76
2023/01/25 03:24:07;;;;;;;;;;;;;;;;;;7369589;19;1350;-76
2023/01/25 03:29:21;;;;;;;;;;;;;;;;;;7367249;19;1176;-75
2023/01/25 03:31:51;;;;;;;;;;;;;;;;;;7368261;19;760;-75
2023/01/25 03:34:19;;;;;;;;;;;;;;;;;;7368081;19;1298;-75
2023/01/25 03:36:47;;;;;;;;;;;;;;;;;;7369641;19;851;-76
2023/01/25 03:39:15;;;;;;;;;;;;;;;;;;7367909;19;846;-75
2023/01/25 03:41:44;;;;;;;;;;;;;;;;;;7368258;19;752;-75
2023/01/25 03:44:14;;;;;;;;;;;;;;;;;;7368225;19;1302;-75
2023/01/25 03:46:45;;;;;;;;;;;;;;;;;;7366944;19;1843;-75
2023/01/25 03:49:13;;;;;;;;;;;;;;;;;;7367994;19;752;-75
2023/01/25 03:51:41;;;;;;;;;;;;;;;;;;7367405;19;774;-75
2023/01/25 03:54:09;;;;;;;;;;;;;;;;;;7367290;19;1285;-75
2023/01/25 03:56:38;;;;;;;;;;;;;;;;;;7367981;19;823;-76
2023/01/25 03:59:10;;;;;;;;;;;;;;;;;;7366946;19;599;-75
2023/01/25 04:01:39;;;;;;;;;;;;;;;;;;7367686;19;798;-75
2023/01/25 04:04:07;;;;;;;;;;;;;;;;;;7366346;19;1309;-76
2023/01/25 04:06:36;;;;;;;;;;;;;;;;;;7366026;19;1858;-76
2023/01/25 04:09:04;;;;;;;;;;;;;;;;;;7366420;19;887;-75
2023/01/25 04:11:39;;;;;;;;;;;;;;;;;;7367416;19;638;-75
2023/01/25 04:14:07;;;;;;;;;;;;;;;;;;7366576;19;1357;-76
2023/01/25 04:16:44;;;;;;;;;;;;;;;;;;7368563;19;1513;-75
2023/01/25 04:19:21;;;;;;;;;;;;;;;;;;7367209;19;714;-75
2023/01/25 04:21:50;;;;;;;;;;;;;;;;;;7366613;19;733;-76
2023/01/25 04:24:19;;;;;;;;;;;;;;;;;;7365505;19;1278;-75
2023/01/25 04:26:48;;;;;;;;;;;;;;;;;;7364613;19;1853;-75
2023/01/25 04:29:17;;;;;;;;;;;;;;;;;;7366313;19;914;-76
2023/01/25 04:31:45;;;;;;;;;;;;;;;;;;7367031;19;772;-75
2023/01/25 04:34:13;;;;;;;;;;;;;;;;;;7366004;19;1354;-75
2023/01/25 04:36:41;;;;;;;;;;;;;;;;;;7366382;19;856;-75
2023/01/25 04:39:10;;;;;;;;;;;;;;;;;;7365240;19;850;-76
2023/01/25 04:41:39;;;;;;;;;;;;;;;;;;7365747;19;772;-76
2023/01/25 04:44:07;;;;;;;;;;;;;;;;;;7366444;19;1682;-76
2023/01/25 04:46:36;;;;;;;;;;;;;;;;;;7365017;19;1857;-76
2023/01/25 04:49:04;;;;;;;;;;;;;;;;;;7365116;19;860;-76
2023/01/25 04:51:32;;;;;;;;;;;;;;;;;;7366013;19;780;-75
2023/01/25 04:54:00;;;;;;;;;;;;;;;;;;7365770;19;1350;-75
2023/01/25 04:56:29;;;;;;;;;;;;;;;;;;7365112;19;740;-76
2023/01/25 04:58:59;;;;;;;;;;;;;;;;;;7365514;19;771;-75
2023/01/25 05:01:28;;;;;;;;;;;;;;;;;;7366294;19;943;-75
2023/01/25 05:03:57;;;;;;;;;;;;;;;;;;7365578;19;792;-75
2023/01/25 05:06:39;;;;;;;;;;;;;;;;;;7364774;19;1857;-75
2023/01/25 05:09:07;;;;;;;;;;;;;;;;;;7364670;19;898;-75
2023/01/25 05:11:36;;;;;;;;;;;;;;;;;;7366060;19;772;-76
2023/01/25 05:14:10;;;;;;;;;;;;;;;;;;7365245;19;1314;-75
2023/01/25 05:16:39;;;;;;;;;;;;;;;;;;7365007;19;814;-75
2023/01/25 05:19:08;;;;;;;;;;;;;;;;;;7370352;19;900;-75
2023/01/25 05:24:32;;;;;;;;;;;;;;;;;;7370435;19;1405;-76
2023/01/25 05:27:02;;;;;;;;;;;;;;;;;;7370860;19;1851;-75
2023/01/25 05:29:40;;;;;;;;;;;;;;;;;;7371448;19;667;-75
2023/01/25 05:32:10;;;;;;;;;;;;;;;;;;7371338;19;756;-75
2023/01/25 05:34:38;;;;;;;;;;;;;;;;;;7370988;19;1287;-75
2023/01/25 05:37:06;;;;;;;;;;;;;;;;;;7371694;19;803;-76
2023/01/25 05:39:36;;;;;;;;;;;;;;;;;;7370202;19;890;-75
2023/01/25 05:42:04;;;;;;;;;;;;;;;;;;7370921;19;803;-76
2023/01/25 05:44:32;;;;;;;;;;;;;;;;;;7370579;19;1345;-75
2023/01/25 05:47:01;;;;;;;;;;;;;;;;;;7372111;19;1853;-75
2023/01/25 05:49:29;;;;;;;;;;;;;;;;;;7371852;19;878;-76
2023/01/25 05:51:57;;;;;;;;;;;;;;;;;;7374090;19;878;-75
2023/01/25 05:54:25;;;;;;;;;;;;;;;;;;7372055;19;1371;-75
2023/01/25 05:57:01;;;;;;;;;;;;;;;;;;7372323;19;602;-74
2023/01/25 05:59:30;;;;;;;;;;;;;;;;;;7371936;19;629;-73
2023/01/25 06:02:00;;;;;;;;;;;;;;;;;;7373018;19;616;-74
2023/01/25 06:04:28;;;;;;;;;;;;;;;;;;7372378;19;1306;-73
2023/01/25 06:06:57;;;;;;;;;;;;;;;;;;7371225;19;1841;-75
2023/01/25 06:09:25;;;;;;;;;;;;;;;;;;7371371;19;822;-75
2023/01/25 06:11:54;;;;;;;;;;;;;;;;;;7370922;19;783;-75
2023/01/25 06:14:22;;;;;;;;;;;;;;;;;;7370193;19;1354;-74
2023/01/25 06:16:50;;;;;;;;;;;;;;;;;;7373229;19;1607;-75
2023/01/25 06:19:31;;;;;;;;;;;;;;;;;;7370125;19;706;-73
2023/01/25 06:22:19;;;;;;;;;;;;;;;;;;7370779;19;1214;-76
2023/01/25 06:24:47;;;;;;;;;;;;;;;;;;7370502;19;1373;-77
2023/01/25 06:27:16;;;;;;;;;;;;;;;;;;7371727;19;1899;-75
2023/01/25 06:29:44;;;;;;;;;;;;;;;;;;7369723;19;1205;-76
2023/01/25 06:32:12;;;;;;;;;;;;;;;;;;7371511;19;1611;-76
2023/01/25 06:34:40;;;;;;;;;;;;;;;;;;7371534;19;1375;-76
2023/01/25 06:37:12;;;;;;;;;;;;;;;;;;7371040;19;638;-75
2023/01/25 06:39:40;;;;;;;;;;;;;;;;;;7368934;19;797;-75
2023/01/25 06:42:08;;;;;;;;;;;;;;;;;;7369959;19;812;-75
2023/01/25 06:44:36;;;;;;;;;;;;;;;;;;7370322;19;1349;-76
2023/01/25 06:47:04;;;;;;;;;;;;;;;;;;7370913;19;1863;-76
2023/01/25 06:49:32;;;;;;;;;;;;;;;;;;7370263;19;807;-76
2023/01/25 06:52:01;;;;;;;;;;;;;;;;;;7369632;19;851;-75
2023/01/25 06:54:29;;;;;;;;;;;;;;;;;;7369807;19;1298;-75
2023/01/25 06:56:57;;;;;;;;;;;;;;;;;;7371502;19;1481;-76
2023/01/25 06:59:26;;;;;;;;;;;;;;;;;;7369840;19;791;-75
2023/01/25 07:01:54;;;;;;;;;;;;;;;;;;7372214;19;1450;-77
2023/01/25 07:04:22;;;;;;;;;;;;;;;;;;7372921;19;1434;-75
2023/01/25 07:06:50;;;;;;;;;;;;;;;;;;7368444;19;1845;-76
2023/01/25 07:09:22;;;;;;;;;;;;;;;;;;7369600;19;819;-76
2023/01/25 07:11:50;;;;;;;;;;;;;;;;;;7374626;19;935;-76
2023/01/25 07:14:19;;;;;;;;;;;;;;;;;;7372400;19;1260;-76
2023/01/25 07:16:47;;;;;;;;;;;;;;;;;;7371932;19;800;-77
2023/01/25 07:19:16;;;;;;;;;;;;;;;;;;7370857;19;860;-74
2023/01/25 07:21:45;;;;;;;;;;;;;;;;;;7368640;19;1239;-75
2023/01/25 07:24:14;;;;;;;;;;;;;;;;;;7373305;19;1322;-75
2023/01/25 07:26:42;;;;;;;;;;;;;;;;;;7370224;19;2244;-73
2023/01/25 07:29:10;;;;;;;;;;;;;;;;;;7372819;19;1722;-77
2023/01/25 07:31:38;;;;;;;;;;;;;;;;;;7370590;19;812;-73
2023/01/25 07:34:06;;;;;;;;;;;;;;;;;;7369855;19;1322;-74
2023/01/25 07:36:34;;;;;;;;;;;;;;;;;;7369404;19;1056;-73
2023/01/25 07:39:03;;;;;;;;;;;;;;;;;;7372348;19;1018;-74
2023/01/25 07:41:31;;;;;;;;;;;;;;;;;;7367521;19;843;-73
2023/01/25 07:43:59;;;;;;;;;;;;;;;;;;7369901;19;839;-74
2023/01/25 07:46:37;;;;;;;;;;;;;;;;;;7367076;19;852;-74
2023/01/25 07:49:06;;;;;;;;;;;;;;;;;;7368482;19;803;-74
2023/01/25 07:51:34;;;;;;;;;;;;;;;;;;7369153;19;794;-75
2023/01/25 07:54:02;;;;;;;;;;;;;;;;;;7369239;19;1344;-75
2023/01/25 07:56:30;;;;;;;;;;;;;;;;;;7368339;19;885;-75
2023/01/25 07:58:59;;;;;;;;;;;;;;;;;;7370973;19;1501;-73
2023/01/25 08:01:27;;;;;;;;;;;;;;;;;;7373216;19;1469;-72
2023/01/25 08:03:55;;;;;;;;;;;;;;;;;;7369001;19;815;-71
2023/01/25 08:06:26;;;;;;;;;;;;;;;;;;7366208;19;1368;-73
2023/01/25 08:08:54;;;;;;;;;;;;;;;;;;7364430;19;1848;-75
2023/01/25 08:11:22;;;;;;;;;;;;;;;;;;7368415;19;774;-72
2023/01/25 08:13:51;;;;;;;;;;;;;;;;;;7370037;19;1331;-71
2023/01/25 08:16:19;;;;;;;;;;;;;;;;;;7367011;19;1291;-71
2023/01/25 08:18:47;;;;;;;;;;;;;;;;;;7369874;19;1620;-71
2023/01/25 08:21:15;;;;;;;;;;;;;;;;;;7368901;19;862;-75
2023/01/25 08:23:43;;;;;;;;;;;;;;;;;;7368188;19;847;-73
2023/01/25 08:26:12;;;;;;;;;;;;;;;;;;7365189;19;1282;-75
2023/01/25 08:28:40;;;;;;;;;;;;;;;;;;7368397;19;1838;-76
2023/01/25 08:31:08;;;;;;;;;;;;;;;;;;7371265;19;1153;-75
2023/01/25 08:33:38;;;;;;;;;;;;;;;;;;7373708;19;1555;-75
2023/01/25 08:39:18;;;;;;;;;;;;;;;;;;7368998;19;1121;-74
2023/01/25 08:41:46;;;;;;;;;;;;;;;;;;7368576;19;653;-74
2023/01/25 08:44:14;;;;;;;;;;;;;;;;;;7366492;19;1299;-74
2023/01/25 08:46:43;;;;;;;;;;;;;;;;;;7367819;19;859;-74
2023/01/25 08:49:12;;;;;;;;;;;;;;;;;;7363946;19;1834;-75
2023/01/25 08:51:40;;;;;;;;;;;;;;;;;;7366090;19;1213;-74
2023/01/25 08:54:08;;;;;;;;;;;;;;;;;;7368042;19;1340;-74
2023/01/25 08:56:36;;;;;;;;;;;;;;;;;;7367530;19;841;-74
2023/01/25 08:59:04;;;;;;;;;;;;;;;;;;7367515;19;812;-74
2023/01/25 09:01:33;;;;;;;;;;;;;;;;;;7368231;19;800;-74
2023/01/25 09:04:01;;;;;;;;;;;;;;;;;;7367330;19;1354;-74
2023/01/25 09:06:29;;;;;;;;;;;;;;;;;;7366112;19;796;-74
2023/01/25 09:08:58;;;;;;;;;;;;;;;;;;7365640;19;1833;-75
2023/01/25 09:11:26;;;;;;;;;;;;;;;;;;7368646;19;799;-74
2023/01/25 09:13:54;;;;;;;;;;;;;;;;;;7367492;19;782;-75
2023/01/25 09:16:27;;;;;;;;;;;;;;;;;;7363399;19;1278;-75
2023/01/25 09:18:55;;;;;;;;;;;;;;;;;;7366104;19;595;-74
2023/01/25 09:21:23;;;;;;;;;;;;;;;;;;7367423;19;886;-74
2023/01/25 09:23:51;;;;;;;;;;;;;;;;;;7365222;19;864;-75
2023/01/25 09:26:20;;;;;;;;;;;;;;;;;;7364100;19;1248;-75
2023/01/25 09:28:48;;;;;;;;;;;;;;;;;;7364821;19;1818;-76
2023/01/25 09:31:16;;;;;;;;;;;;;;;;;;7367258;19;863;-74
2023/01/25 09:34:16;;;;;;;;;;;;;;;;;;7363768;19;1330;-77
2023/01/25 09:36:45;;;;;;;;;;;;;;;;;;7365826;19;716;-75
2023/01/25 09:39:13;;;;;;;;;;;;;;;;;;7366709;19;870;-74
2023/01/25 09:41:41;;;;;;;;;;;;;;;;;;7367088;19;744;-74
2023/01/25 09:44:11;;;;;;;;;;;;;;;;;;7366646;19;1365;-74
2023/01/25 09:46:39;;;;;;;;;;;;;;;;;;7366223;19;942;-74
2023/01/25 09:49:07;;;;;;;;;;;;;;;;;;7365869;19;1862;-74
2023/01/25 09:51:37;;;;;;;;;;;;;;;;;;7369300;19;949;-75
2023/01/25 09:54:05;;;;;;;;;;;;;;;;;;7365040;19;1732;-75
2023/01/25 09:56:33;;;;;;;;;;;;;;;;;;7366251;19;1327;-74
2023/01/25 09:59:02;;;;;;;;;;;;;;;;;;7364574;19;783;-74
2023/01/25 10:01:30;;;;;;;;;;;;;;;;;;7365806;19;852;-77
2023/01/25 10:03:58;;;;;;;;;;;;;;;;;;7369156;19;830;-74
2023/01/25 10:06:26;;;;;;;;;;;;;;;;;;7371388;19;1544;-73
2023/01/25 10:08:54;;;;;;;;;;;;;;;;;;7370975;19;1848;-74
2023/01/25 10:11:23;;;;;;;;;;;;;;;;;;7372109;19;862;-73
2023/01/25 10:13:51;;;;;;;;;;;;;;;;;;7371893;19;1514;-72
2023/01/25 10:16:20;;;;;;;;;;;;;;;;;;7369694;19;1204;-73
2023/01/25 10:18:48;;;;;;;;;;;;;;;;;;7371577;19;745;-73
2023/01/25 10:21:16;;;;;;;;;;;;;;;;;;7371482;19;891;-73
2023/01/25 10:23:44;;;;;;;;;;;;;;;;;;7371741;19;1443;-73
2023/01/25 10:26:13;;;;;;;;;;;;;;;;;;7366871;19;1334;-73
2023/01/25 10:28:41;;;;;;;;;;;;;;;;;;7368698;19;1968;-73
2023/01/25 10:31:09;;;;;;;;;;;;;;;;;;7370982;19;832;-73
2023/01/25 10:33:37;;;;;;;;;;;;;;;;;;7371408;19;869;-73
2023/01/25 10:36:05;;;;;;;;;;;;;;;;;;7369323;19;1307;-73
2023/01/25 10:38:33;;;;;;;;;;;;;;;;;;7372007;19;1329;-73
2023/01/25 10:41:02;;;;;;;;;;;;;;;;;;7372079;19;795;-73
2023/01/25 10:43:30;;;;;;;;;;;;;;;;;;7370372;19;844;-73
2023/01/25 10:45:58;;;;;;;;;;;;;;;;;;7372418;19;1519;-74
2023/01/25 10:48:27;;;;;;;;;;;;;;;;;;7369037;19;1848;-74
2023/01/25 10:50:56;;;;;;;;;;;;;;;;;;7372973;19;780;-73
2023/01/25 10:53:24;;;;;;;;;;;;;;;;;;7374484;19;727;-74
2023/01/25 10:55:52;;;;;;;;;;;;;;;;;;7372563;19;1328;-74
2023/01/25 10:58:20;;;;;;;;;;;;;;;;;;7373604;19;818;-73
2023/01/25 11:00:49;;;;;;;;;;;;;;;;;;7370398;19;806;-73
2023/01/25 11:03:17;;;;;;;;;;;;;;;;;;7372087;19;735;-74
2023/01/25 11:05:45;;;;;;;;;;;;;;;;;;7370196;19;1453;-73
2023/01/25 11:08:13;;;;;;;;;;;;;;;;;;7369091;19;1842;-74
2023/01/25 11:10:41;;;;;;;;;;;;;;;;;;7373976;19;756;-74
2023/01/25 11:13:10;;;;;;;;;;;;;;;;;;7374616;19;1825;-74
2023/01/25 11:15:38;;;;;;;;;;;;;;;;;;7366610;19;1278;-75
2023/01/25 11:18:06;;;;;;;;;;;;;;;;;;7370153;19;854;-75
2023/01/25 11:20:34;;;;;;;;;;;;;;;;;;7370081;19;850;-75
2023/01/25 11:23:02;;;;;;;;;;;;;;;;;;7371282;19;850;-76
2023/01/25 11:25:31;;;;;;;;;;;;;;;;;;7369413;19;1302;-76
2023/01/25 11:27:59;;;;;;;;;;;;;;;;;;7368921;19;1837;-75
2023/01/25 11:30:27;;;;;;;;;;;;;;;;;;7370241;19;868;-75
2023/01/25 11:32:55;;;;;;;;;;;;;;;;;;7368644;19;791;-76
2023/01/25 11:35:23;;;;;;;;;;;;;;;;;;7367985;19;1326;-75
2023/01/25 11:37:52;;;;;;;;;;;;;;;;;;7369991;19;842;-75
2023/01/25 11:40:20;;;;;;;;;;;;;;;;;;7369193;19;770;-74
2023/01/25 11:42:49;;;;;;;;;;;;;;;;;;7371406;19;865;-75
2023/01/25 11:45:17;;;;;;;;;;;;;;;;;;7373837;19;1343;-76
2023/01/25 11:47:46;;;;;;;;;;;;;;;;;;7370639;19;915;-75
2023/01/25 11:50:14;;;;;;;;;;;;;;;;;;7368907;19;1838;-73
2023/01/25 11:52:42;;;;;;;;;;;;;;;;;;7370693;19;834;-75
2023/01/25 11:55:10;;;;;;;;;;;;;;;;;;7367960;19;1267;-73
2023/01/25 11:57:39;;;;;;;;;;;;;;;;;;7368511;19;795;-73
2023/01/25 12:00:07;;;;;;;;;;;;;;;;;;7367660;19;891;-74
2023/01/25 12:02:35;;;;;;;;;;;;;;;;;;7370534;19;1647;-75
2023/01/25 12:05:03;;;;;;;;;;;;;;;;;;7366294;19;1295;-73
2023/01/25 12:07:31;;;;;;;;;;;;;;;;;;7369101;19;791;-74
2023/01/25 12:09:59;;;;;;;;;;;;;;;;;;7368055;19;1849;-75
2023/01/25 12:12:28;;;;;;;;;;;;;;;;;;7372520;19;1858;-73
2023/01/25 12:14:56;;;;;;;;;;;;;;;;;;7373834;19;1416;-74
2023/01/25 12:17:24;;;;;;;;;;;;;;;;;;7369635;19;875;-74
2023/01/25 12:19:52;;;;;;;;;;;;;;;;;;7370759;19;783;-74
2023/01/25 12:22:20;;;;;;;;;;;;;;;;;;7369560;19;821;-74
2023/01/25 12:24:49;;;;;;;;;;;;;;;;;;7368882;19;1287;-74
2023/01/25 12:27:17;;;;;;;;;;;;;;;;;;7366210;19;811;-73
2023/01/25 12:29:45;;;;;;;;;;;;;;;;;;7367859;19;1841;-73
2023/01/25 12:32:13;;;;;;;;;;;;;;;;;;7369585;19;818;-73
2023/01/25 12:34:41;;;;;;;;;;;;;;;;;;7368057;19;1669;-73
2023/01/25 12:37:10;;;;;;;;;;;;;;;;;;7374030;19;1431;-75
2023/01/25 12:39:38;;;;;;;;;;;;;;;;;;7369506;19;846;-74
2023/01/25 12:42:06;;;;;;;;;;;;;;;;;;7372145;19;1513;-73
2023/01/25 12:44:34;;;;;;;;;;;;;;;;;;7368463;19;1290;-74
2023/01/25 12:47:02;;;;;;;;;;;;;;;;;;7369718;19;859;-74
2023/01/25 12:49:30;;;;;;;;;;;;;;;;;;7369457;19;1844;-75
2023/01/25 12:51:59;;;;;;;;;;;;;;;;;;7369411;19;854;-75
2023/01/25 12:54:27;;;;;;;;;;;;;;;;;;7368259;19;1724;-74
2023/01/25 12:56:57;;;;;;;;;;;;;;;;;;7367973;19;815;-74
2023/01/25 12:59:25;;;;;;;;;;;;;;;;;;7366840;19;1007;-74
2023/01/25 13:01:53;;;;;;;;;;;;;;;;;;7371101;19;1046;-72
2023/01/25 13:04:21;;;;;;;;;;;;;;;;;;7366727;19;1318;-74
2023/01/25 13:06:50;;;;;;;;;;;;;;;;;;7368531;19;870;-74
2023/01/25 13:09:20;;;;;;;;;;;;;;;;;;7367060;19;1838;-74
2023/01/25 13:11:48;;;;;;;;;;;;;;;;;;7367156;19;1652;-73
2023/01/25 13:14:16;;;;;;;;;;;;;;;;;;7364281;19;1293;-73
2023/01/25 13:16:47;;;;;;;;;;;;;;;;;;7368653;19;804;-73
2023/01/25 13:19:15;;;;;;;;;;;;;;;;;;7368530;19;757;-73
2023/01/25 13:21:43;;;;;;;;;;;;;;;;;;7366129;19;805;-73
2023/01/25 13:24:12;;;;;;;;;;;;;;;;;;7368921;19;1578;-73
2023/01/25 13:26:40;;;;;;;;;;;;;;;;;;7368514;19;788;-73
2023/01/25 13:29:08;;;;;;;;;;;;;;;;;;7367327;19;1805;-73
2023/01/25 13:31:36;;;;;;;;;;;;;;;;;;7369031;19;847;-73
2023/01/25 13:34:04;;;;;;;;;;;;;;;;;;7369381;19;1365;-73
2023/01/25 13:36:33;;;;;;;;;;;;;;;;;;7368937;19;839;-74
2023/01/25 13:39:01;;;;;;;;;;;;;;;;;;7373163;19;1118;-74
2023/01/25 13:41:29;;;;;;;;;;;;;;;;;;7375616;19;798;-74
2023/01/25 13:43:57;;;;;;;;;;;;;;;;;;7379618;19;1550;-73
2023/01/25 13:46:25;;;;;;;;;;;;;;;;;;7371332;19;1331;-74
2023/01/25 13:48:53;;;;;;;;;;;;;;;;;;7372543;19;1876;-73
2023/01/25 13:51:22;;;;;;;;;;;;;;;;;;7376698;19;1043;-74
2023/01/25 13:53:50;;;;;;;;;;;;;;;;;;7380299;19;1600;-73
2023/01/25 13:56:18;;;;;;;;;;;;;;;;;;7376700;19;1270;-74
2023/01/25 13:58:46;;;;;;;;;;;;;;;;;;7391936;19;815;-73
2023/01/25 14:01:14;;;;;;;;;;;;;;;;;;7397808;19;860;-73
2023/01/25 14:03:43;;;;;;;;;;;;;;;;;;7391940;19;815;-73
2023/01/25 14:06:11;;;;;;;;;;;;;;;;;;7388373;19;1270;-75
2023/01/25 14:08:39;;;;;;;;;;;;;;;;;;7385605;19;1817;-74
2023/01/25 14:11:07;;;;;;;;;;;;;;;;;;7384558;19;857;-74
2023/01/25 14:13:35;;;;;;;;;;;;;;;;;;7382286;19;843;-74
2023/01/25 14:16:04;;;;;;;;;;;;;;;;;;7382955;19;1743;-73
2023/01/25 14:18:32;;;;;;;;;;;;;;;;;;7384415;19;813;-74
2023/01/25 14:21:00;;;;;;;;;;;;;;;;;;7388452;19;804;-76
2023/01/25 14:23:28;;;;;;;;;;;;;;;;;;7388041;19;1510;-75
2023/01/25 14:25:57;;;;;;;;;;;;;;;;;;7376611;19;1239;-77
2023/01/25 14:28:26;;;;;;;;;;;;;;;;;;7375947;19;868;-76
2023/01/25 14:30:54;;;;;;;;;;;;;;;;;;7374838;19;1845;-75
2023/01/25 14:33:24;;;;;;;;;;;;;;;;;;7376511;19;779;-78
2023/01/25 14:35:52;;;;;;;;;;;;;;;;;;7372563;19;1357;-75
2023/01/25 14:38:20;;;;;;;;;;;;;;;;;;7373269;19;826;-74
2023/01/25 14:40:48;;;;;;;;;;;;;;;;;;7372546;19;851;-75
2023/01/25 14:43:16;;;;;;;;;;;;;;;;;;7374623;19;810;-76
2023/01/25 14:45:44;;;;;;;;;;;;;;;;;;7373960;19;1356;-75
2023/01/25 14:48:13;;;;;;;;;;;;;;;;;;7374445;19;822;-75
2023/01/25 14:50:41;;;;;;;;;;;;;;;;;;7371615;19;1849;-74
2023/01/25 14:53:09;;;;;;;;;;;;;;;;;;7374092;19;760;-76
2023/01/25 14:55:37;;;;;;;;;;;;;;;;;;7376175;19;1620;-75
2023/01/25 14:58:06;;;;;;;;;;;;;;;;;;7377109;19;1532;-74
2023/01/25 15:00:34;;;;;;;;;;;;;;;;;;7373590;19;811;-76
2023/01/25 15:03:03;;;;;;;;;;;;;;;;;;7374987;19;858;-75
2023/01/25 15:05:31;;;;;;;;;;;;;;;;;;7372101;19;1301;-74
2023/01/25 15:08:00;;;;;;;;;;;;;;;;;;7371454;19;815;-74
2023/01/25 15:10:28;;;;;;;;;;;;;;;;;;7369078;19;1853;-74
2023/01/25 15:12:56;;;;;;;;;;;;;;;;;;7372205;19;815;-73
2023/01/25 15:15:24;;;;;;;;;;;;;;;;;;7371252;19;1419;-74
2023/01/25 15:17:54;;;;;;;;;;;;;;;;;;7375403;19;1783;-74
2023/01/25 15:20:25;;;;;;;;;;;;;;;;;;7372133;19;1434;-75
2023/01/25 15:22:53;;;;;;;;;;;;;;;;;;7375620;19;1807;-75
2023/01/25 15:25:22;;;;;;;;;;;;;;;;;;7368644;19;1298;-74
2023/01/25 15:27:50;;;;;;;;;;;;;;;;;;7370212;19;792;-75
2023/01/25 15:30:18;;;;;;;;;;;;;;;;;;7370188;19;1848;-75
2023/01/25 15:32:46;;;;;;;;;;;;;;;;;;7368975;19;867;-74
2023/01/25 15:35:14;;;;;;;;;;;;;;;;;;7368105;19;1302;-75
2023/01/25 15:37:43;;;;;;;;;;;;;;;;;;7371233;19;779;-74
2023/01/25 15:40:11;;;;;;;;;;;;;;;;;;7372237;19;868;-74
2023/01/25 15:42:40;;;;;;;;;;;;;;;;;;7371134;19;791;-75
2023/01/25 15:45:08;;;;;;;;;;;;;;;;;;7371958;19;1294;-74
2023/01/25 15:47:36;;;;;;;;;;;;;;;;;;7371428;19;1406;-75
2023/01/25 15:50:04;;;;;;;;;;;;;;;;;;7373792;19;1874;-75
2023/01/25 15:52:33;;;;;;;;;;;;;;;;;;7376342;19;1071;-77
2023/01/25 15:55:01;;;;;;;;;;;;;;;;;;7375376;19;1246;-77
2023/01/25 15:57:29;;;;;;;;;;;;;;;;;;7375697;19;815;-77
2023/01/25 15:59:57;;;;;;;;;;;;;;;;;;7374327;19;854;-76
2023/01/25 16:02:26;;;;;;;;;;;;;;;;;;7367384;19;847;-78
2023/01/25 16:04:54;;;;;;;;;;;;;;;;;;7369765;19;1268;-77
2023/01/25 16:07:22;;;;;;;;;;;;;;;;;;7372607;19;769;-79
2023/01/25 16:09:51;;;;;;;;;;;;;;;;;;7367060;19;1833;-77
2023/01/25 16:12:21;;;;;;;;;;;;;;;;;;7369519;19;878;-75
2023/01/25 16:14:49;;;;;;;;;;;;;;;;;;7368448;19;1333;-75
2023/01/25 16:17:17;;;;;;;;;;;;;;;;;;7371155;19;2098;-73
2023/01/25 16:19:46;;;;;;;;;;;;;;;;;;7368071;19;865;-74
2023/01/25 16:22:14;;;;;;;;;;;;;;;;;;7369026;19;738;-76
2023/01/25 16:24:43;;;;;;;;;;;;;;;;;;7366107;19;1287;-77
2023/01/25 16:27:11;;;;;;;;;;;;;;;;;;7369178;19;840;-76
2023/01/25 16:29:39;;;;;;;;;;;;;;;;;;7367395;19;1841;-76
2023/01/25 16:32:07;;;;;;;;;;;;;;;;;;7367192;19;887;-75
2023/01/25 16:34:35;;;;;;;;;;;;;;;;;;7366518;19;1405;-75
2023/01/25 16:37:03;;;;;;;;;;;;;;;;;;7368231;19;680;-75
2023/01/25 16:39:32;;;;;;;;;;;;;;;;;;7367284;19;834;-75
2023/01/25 16:42:01;;;;;;;;;;;;;;;;;;7366148;19;869;-74
2023/01/25 16:44:29;;;;;;;;;;;;;;;;;;7366443;19;1342;-74
2023/01/25 16:46:57;;;;;;;;;;;;;;;;;;7365774;19;848;-75
2023/01/25 16:49:26;;;;;;;;;;;;;;;;;;7366756;19;1847;-75
2023/01/25 16:51:54;;;;;;;;;;;;;;;;;;7367538;19;871;-74
2023/01/25 16:54:22;;;;;;;;;;;;;;;;;;7367262;19;1306;-75
2023/01/25 16:56:50;;;;;;;;;;;;;;;;;;7365664;19;841;-75
2023/01/25 16:59:18;;;;;;;;;;;;;;;;;;7366015;19;709;-74
2023/01/25 17:01:46;;;;;;;;;;;;;;;;;;7368389;19;1042;-75
2023/01/25 17:04:15;;;;;;;;;;;;;;;;;;7364907;19;1369;-74
2023/01/25 17:06:43;;;;;;;;;;;;;;;;;;7365309;19;850;-74
2023/01/25 17:09:11;;;;;;;;;;;;;;;;;;7365788;19;902;-74
2023/01/25 17:11:39;;;;;;;;;;;;;;;;;;7362226;19;1865;-75
2023/01/25 17:14:08;;;;;;;;;;;;;;;;;;7370372;19;1312;-72
2023/01/25 17:16:36;;;;;;;;;;;;;;;;;;7372537;19;909;-74
2023/01/25 17:19:04;;;;;;;;;;;;;;;;;;7372930;19;1093;-75
2023/01/25 17:21:32;;;;;;;;;;;;;;;;;;7378273;19;1502;-75
2023/01/25 17:24:00;;;;;;;;;;;;;;;;;;7373068;19;854;-75
2023/01/25 17:26:28;;;;;;;;;;;;;;;;;;7370706;19;1329;-74
2023/01/25 17:28:57;;;;;;;;;;;;;;;;;;7374483;19;795;-74
2023/01/25 17:31:25;;;;;;;;;;;;;;;;;;7370082;19;1816;-74